Time;durP1;ratioP1;P1;durP2;ratioP2;P2;SDS_P1;SDS_P2;PMS_P1;PMS_P2;Temp;Humidity;BMP_temperature;BMP_pressure;BME280_temperature;BME280_humidity;BME280_pressure;Samples;Min_cycle;Max_cycle;Signal;HPM_P1;HPM_P2
2023/06/02 00:01:00;;;;;;;11.93;3.80;;;;;;;;;;4987243;28;20057;-72
2023/06/02 00:03:29;;;;;;;11.63;3.67;;;;;;;;;;4981766;28;20033;-71
2023/06/02 00:05:55;;;;;;;12.63;4.05;;;;;;;;;;4986728;28;20029;-72
2023/06/02 00:08:21;;;;;;;10.55;3.80;;;;;;;;;;4988251;28;20474;-72
2023/06/02 00:10:46;;;;;;;8.80;3.80;;;;;;;;;;4992832;28;20072;-72
2023/06/02 00:13:11;;;;;;;9.35;3.10;;;;;;;;;;4989379;28;20101;-72
2023/06/02 00:15:37;;;;;;;11.80;3.57;;;;;;;;;;4991671;28;20022;-72
2023/06/02 00:18:02;;;;;;;6.15;3.38;;;;;;;;;;4990777;28;20277;-72
2023/06/02 00:20:28;;;;;;;9.23;3.83;;;;;;;;;;4993539;28;20038;-72
2023/06/02 00:22:54;;;;;;;13.50;3.55;;;;;;;;;;4991263;28;20028;-72
2023/06/02 00:25:19;;;;;;;6.97;3.08;;;;;;;;;;4992064;28;20023;-72
2023/06/02 00:27:44;;;;;;;11.20;4.00;;;;;;;;;;4993358;28;20082;-72
2023/06/02 00:30:10;;;;;;;14.10;4.33;;;;;;;;;;4988668;28;20038;-72
2023/06/02 00:32:35;;;;;;;9.40;3.90;;;;;;;;;;4991269;28;20356;-72
2023/06/02 00:35:00;;;;;;;14.70;4.77;;;;;;;;;;4993379;28;20045;-72
2023/06/02 00:37:26;;;;;;;17.80;4.25;;;;;;;;;;4989486;28;20281;-72
2023/06/02 00:39:51;;;;;;;12.85;4.22;;;;;;;;;;4992610;28;20029;-72
2023/06/02 00:42:16;;;;;;;6.30;3.43;;;;;;;;;;4992354;28;20114;-72
2023/06/02 00:44:41;;;;;;;14.07;4.03;;;;;;;;;;4992976;28;20249;-72
2023/06/02 00:47:08;;;;;;;7.83;3.00;;;;;;;;;;4989775;28;20065;-72
2023/06/02 00:49:33;;;;;;;7.07;3.40;;;;;;;;;;4990301;28;20277;-72
2023/06/02 00:51:58;;;;;;;8.60;4.07;;;;;;;;;;4990408;28;20436;-72
2023/06/02 00:54:25;;;;;;;13.75;3.97;;;;;;;;;;4991186;28;20276;-72
2023/06/02 00:56:51;;;;;;;15.75;4.45;;;;;;;;;;4991821;28;20096;-72
2023/06/02 00:59:16;;;;;;;7.88;4.47;;;;;;;;;;4987748;28;20028;-72
2023/06/02 01:01:41;;;;;;;7.63;3.10;;;;;;;;;;4992090;28;20022;-72
2023/06/02 01:04:07;;;;;;;12.45;4.35;;;;;;;;;;4990385;28;20113;-72
2023/06/02 01:06:36;;;;;;;12.23;3.65;;;;;;;;;;4992208;28;20034;-72
2023/06/02 01:09:03;;;;;;;9.65;4.20;;;;;;;;;;4987977;28;20153;-72
2023/06/02 01:11:28;;;;;;;11.55;3.60;;;;;;;;;;4989108;28;20022;-72
2023/06/02 01:13:54;;;;;;;9.07;3.42;;;;;;;;;;4984796;28;20493;-71
2023/06/02 01:16:19;;;;;;;10.45;4.95;;;;;;;;;;4990410;28;20032;-72
2023/06/02 01:18:45;;;;;;;7.07;3.88;;;;;;;;;;4984615;28;20521;-72
2023/06/02 01:21:11;;;;;;;5.78;3.20;;;;;;;;;;4985436;28;20030;-72
2023/06/02 01:23:37;;;;;;;11.70;3.92;;;;;;;;;;4989517;28;20077;-72
2023/06/02 01:26:05;;;;;;;12.68;3.97;;;;;;;;;;4983655;28;20437;-72
2023/06/02 01:28:30;;;;;;;10.48;3.35;;;;;;;;;;4983236;28;20027;-72
2023/06/02 01:30:57;;;;;;;11.05;3.80;;;;;;;;;;4987818;28;20088;-72
2023/06/02 01:33:29;;;;;;;7.65;3.88;;;;;;;;;;4989173;28;20102;-72
2023/06/02 01:35:57;;;;;;;7.30;4.13;;;;;;;;;;4986182;28;20492;-72
2023/06/02 01:38:24;;;;;;;7.15;3.65;;;;;;;;;;4987695;28;20533;-72
2023/06/02 01:40:50;;;;;;;12.55;3.35;;;;;;;;;;4989637;28;20019;-72
2023/06/02 01:43:16;;;;;;;11.35;4.18;;;;;;;;;;4988625;28;20053;-72
2023/06/02 01:45:42;;;;;;;7.50;3.58;;;;;;;;;;4991821;28;20019;-72
2023/06/02 01:48:08;;;;;;;16.17;4.65;;;;;;;;;;4987329;28;20535;-72
2023/06/02 01:50:33;;;;;;;10.05;3.97;;;;;;;;;;4988035;28;20030;-72
2023/06/02 01:52:59;;;;;;;15.35;3.72;;;;;;;;;;4985471;28;20402;-72
2023/06/02 01:55:24;;;;;;;8.82;3.95;;;;;;;;;;4989791;28;20023;-72
2023/06/02 01:57:49;;;;;;;13.55;4.13;;;;;;;;;;4984816;28;20022;-72
2023/06/02 02:00:15;;;;;;;9.32;4.55;;;;;;;;;;4985462;28;20130;-73
2023/06/02 02:02:40;;;;;;;9.20;3.88;;;;;;;;;;4991716;28;20041;-72
2023/06/02 02:05:06;;;;;;;7.40;3.20;;;;;;;;;;4984405;28;20027;-72
2023/06/02 02:07:31;;;;;;;8.73;3.70;;;;;;;;;;4989647;28;20265;-72
2023/06/02 02:09:56;;;;;;;9.60;3.58;;;;;;;;;;4983163;28;20040;-72
2023/06/02 02:12:22;;;;;;;6.78;3.95;;;;;;;;;;4947269;28;1046172;-72
2023/06/02 02:14:50;;;;;;;8.95;3.70;;;;;;;;;;4981770;28;20018;-72
2023/06/02 02:17:16;;;;;;;8.77;3.78;;;;;;;;;;4990622;28;20400;-72
2023/06/02 02:19:41;;;;;;;12.20;3.88;;;;;;;;;;4988650;28;20023;-72
2023/06/02 02:22:07;;;;;;;19.88;4.00;;;;;;;;;;4982742;28;20407;-72
2023/06/02 02:24:32;;;;;;;8.27;3.83;;;;;;;;;;4984625;28;20029;-72
2023/06/02 02:26:57;;;;;;;8.90;3.63;;;;;;;;;;4983155;28;20644;-72
2023/06/02 02:29:22;;;;;;;11.82;4.10;;;;;;;;;;4985637;28;20277;-72
2023/06/02 02:31:48;;;;;;;15.93;4.25;;;;;;;;;;4986650;28;20069;-72
2023/06/02 02:34:13;;;;;;;13.13;4.17;;;;;;;;;;4985630;28;20023;-72
2023/06/02 02:36:39;;;;;;;12.83;3.63;;;;;;;;;;4980665;28;20301;-72
2023/06/02 02:39:05;;;;;;;9.90;3.70;;;;;;;;;;4991435;28;20744;-72
2023/06/02 02:41:30;;;;;;;10.73;4.10;;;;;;;;;;4992087;28;20058;-72
2023/06/02 02:43:55;;;;;;;14.40;4.40;;;;;;;;;;4990870;28;20025;-72
2023/06/02 02:46:20;;;;;;;16.80;5.00;;;;;;;;;;4989832;28;20269;-72
2023/06/02 02:48:46;;;;;;;9.70;4.40;;;;;;;;;;4990145;28;20269;-72
2023/06/02 02:51:11;;;;;;;7.07;4.00;;;;;;;;;;4983444;28;20373;-72
2023/06/02 02:53:36;;;;;;;13.60;4.50;;;;;;;;;;4980910;28;20270;-72
2023/06/02 02:56:02;;;;;;;8.83;3.60;;;;;;;;;;4975723;28;20293;-72
2023/06/02 02:58:27;;;;;;;9.68;3.65;;;;;;;;;;4981943;28;20347;-72
2023/06/02 03:00:52;;;;;;;7.60;4.03;;;;;;;;;;4987608;28;20026;-72
2023/06/02 03:03:17;;;;;;;10.40;4.40;;;;;;;;;;4984385;28;22574;-72
2023/06/02 03:05:45;;;;;;;7.73;3.90;;;;;;;;;;4984070;28;20272;-72
2023/06/02 03:08:12;;;;;;;12.73;4.90;;;;;;;;;;4983553;28;20274;-72
2023/06/02 03:10:37;;;;;;;15.55;4.43;;;;;;;;;;4984295;28;20036;-72
2023/06/02 03:13:02;;;;;;;12.25;4.60;;;;;;;;;;4988049;28;20118;-72
2023/06/02 03:15:28;;;;;;;16.03;4.47;;;;;;;;;;4986167;28;20460;-72
2023/06/02 03:17:55;;;;;;;10.77;4.50;;;;;;;;;;4984721;28;20348;-72
2023/06/02 03:20:21;;;;;;;12.75;3.75;;;;;;;;;;4990953;28;20616;-72
2023/06/02 03:22:47;;;;;;;12.50;4.38;;;;;;;;;;4989959;28;20029;-72
2023/06/02 03:25:12;;;;;;;10.27;4.15;;;;;;;;;;4983742;28;20014;-72
2023/06/02 03:27:37;;;;;;;11.82;4.13;;;;;;;;;;4985691;28;20334;-72
2023/06/02 03:30:03;;;;;;;12.33;3.70;;;;;;;;;;4984236;28;20023;-72
2023/06/02 03:32:28;;;;;;;8.48;3.92;;;;;;;;;;4983735;28;20320;-72
2023/06/02 03:34:53;;;;;;;11.90;3.90;;;;;;;;;;4989604;28;20097;-72
2023/06/02 03:37:18;;;;;;;17.20;4.80;;;;;;;;;;4986332;28;20341;-72
2023/06/02 03:39:44;;;;;;;11.40;4.70;;;;;;;;;;4987329;28;20257;-72
2023/06/02 03:42:09;;;;;;;15.25;4.40;;;;;;;;;;4986119;28;20473;-72
2023/06/02 03:44:34;;;;;;;12.95;4.85;;;;;;;;;;4983269;28;20034;-72
2023/06/02 03:47:00;;;;;;;16.13;5.50;;;;;;;;;;4986420;28;20116;-72
2023/06/02 03:49:27;;;;;;;12.98;5.20;;;;;;;;;;4983004;28;20504;-72
2023/06/02 03:51:52;;;;;;;14.95;4.53;;;;;;;;;;4987801;28;20190;-72
2023/06/02 03:54:18;;;;;;;17.07;6.10;;;;;;;;;;4982988;28;20594;-72
2023/06/02 03:56:43;;;;;;;13.90;5.93;;;;;;;;;;4986933;28;20316;-72
2023/06/02 03:59:08;;;;;;;19.60;5.17;;;;;;;;;;4983414;28;20015;-72
2023/06/02 04:01:35;;;;;;;17.80;5.57;;;;;;;;;;4985972;28;20799;-71
2023/06/02 04:04:00;;;;;;;12.52;6.60;;;;;;;;;;4989585;28;20257;-71
2023/06/02 04:06:25;;;;;;;12.90;5.23;;;;;;;;;;4987146;28;20057;-72
2023/06/02 04:08:51;;;;;;;17.75;5.53;;;;;;;;;;4985552;28;20257;-72
2023/06/02 04:11:16;;;;;;;18.60;6.45;;;;;;;;;;4985116;28;20027;-72
2023/06/02 04:13:41;;;;;;;16.80;5.97;;;;;;;;;;4979604;28;20038;-72
2023/06/02 04:16:07;;;;;;;21.40;5.57;;;;;;;;;;4977075;28;20269;-72
2023/06/02 04:18:35;;;;;;;14.13;5.53;;;;;;;;;;4977607;28;20786;-72
2023/06/02 04:21:00;;;;;;;13.57;6.00;;;;;;;;;;4979909;28;20126;-72
2023/06/02 04:23:26;;;;;;;19.60;5.80;;;;;;;;;;4979922;28;20061;-72
2023/06/02 04:25:51;;;;;;;13.52;5.82;;;;;;;;;;4977924;28;20286;-72
2023/06/02 04:28:16;;;;;;;15.50;4.60;;;;;;;;;;4977115;28;20065;-72
2023/06/02 04:30:41;;;;;;;15.52;4.93;;;;;;;;;;4977367;28;20305;-71
2023/06/02 04:33:07;;;;;;;13.87;5.47;;;;;;;;;;4983225;28;20673;-72
2023/06/02 04:35:33;;;;;;;19.27;5.38;;;;;;;;;;4977692;28;20262;-72
2023/06/02 04:37:58;;;;;;;15.30;4.60;;;;;;;;;;4979069;28;20029;-72
2023/06/02 04:40:23;;;;;;;12.43;4.60;;;;;;;;;;4977213;28;20524;-72
2023/06/02 04:42:48;;;;;;;9.57;4.67;;;;;;;;;;4981120;28;20278;-72
2023/06/02 04:45:16;;;;;;;8.33;4.03;;;;;;;;;;4982766;28;20253;-72
2023/06/02 04:47:41;;;;;;;10.15;4.13;;;;;;;;;;4973168;28;20274;-72
2023/06/02 04:50:09;;;;;;;14.23;4.15;;;;;;;;;;4981717;28;20033;-71
2023/06/02 04:52:34;;;;;;;16.48;4.95;;;;;;;;;;4983778;28;20054;-72
2023/06/02 04:55:00;;;;;;;19.13;4.55;;;;;;;;;;4989601;28;20051;-72
2023/06/02 04:57:25;;;;;;;13.10;4.37;;;;;;;;;;4990831;28;20397;-72
2023/06/02 04:59:51;;;;;;;12.60;4.40;;;;;;;;;;4988760;28;20277;-72
2023/06/02 05:02:16;;;;;;;12.82;4.10;;;;;;;;;;4981999;28;20074;-72
2023/06/02 05:04:42;;;;;;;14.17;4.80;;;;;;;;;;4989255;28;20029;-72
2023/06/02 05:07:07;;;;;;;13.27;4.15;;;;;;;;;;4982864;28;20270;-72
2023/06/02 05:09:32;;;;;;;27.67;4.70;;;;;;;;;;4985752;28;20057;-72
2023/06/02 05:11:58;;;;;;;20.63;5.10;;;;;;;;;;4981607;28;20078;-72
2023/06/02 05:14:24;;;;;;;12.82;4.50;;;;;;;;;;4981719;28;20280;-72
2023/06/02 05:16:49;;;;;;;12.75;4.43;;;;;;;;;;4981351;28;20426;-72
2023/06/02 05:19:14;;;;;;;15.82;4.78;;;;;;;;;;4984109;28;20085;-71
2023/06/02 05:21:40;;;;;;;20.00;5.45;;;;;;;;;;4981140;28;20023;-72
2023/06/02 05:24:05;;;;;;;16.80;4.53;;;;;;;;;;4983019;28;20038;-72
2023/06/02 05:26:30;;;;;;;13.27;4.05;;;;;;;;;;4987796;28;20273;-72
2023/06/02 05:28:57;;;;;;;12.63;4.63;;;;;;;;;;4988125;28;20072;-72
2023/06/02 05:31:22;;;;;;;13.63;4.07;;;;;;;;;;4989910;28;20297;-72
2023/06/02 05:33:47;;;;;;;10.13;4.53;;;;;;;;;;4982457;28;20018;-72
2023/06/02 05:36:13;;;;;;;13.18;4.00;;;;;;;;;;4985168;28;20049;-72
2023/06/02 05:38:42;;;;;;;14.23;4.43;;;;;;;;;;4986236;28;20030;-72
2023/06/02 05:41:07;;;;;;;20.13;3.80;;;;;;;;;;4983438;28;20292;-72
2023/06/02 05:43:33;;;;;;;21.10;4.40;;;;;;;;;;4983732;28;20277;-72
2023/06/02 05:45:59;;;;;;;8.25;3.42;;;;;;;;;;4989236;28;20058;-72
2023/06/02 05:55:00;;;;;;;22.60;4.47;;;;;;;;;;5141075;23;20052;-90
2023/06/02 05:57:26;;;;;;;13.13;5.57;;;;;;;;;;5007336;28;20029;-89
2023/06/02 05:59:51;;;;;;;22.90;5.25;;;;;;;;;;5029766;28;20021;-90
2023/06/02 06:02:16;;;;;;;18.58;4.93;;;;;;;;;;5013387;28;20018;-90
2023/06/02 06:04:41;;;;;;;15.65;4.85;;;;;;;;;;5010362;28;20017;-90
2023/06/02 06:07:07;;;;;;;18.30;5.00;;;;;;;;;;5010826;28;20381;-87
2023/06/02 06:09:32;;;;;;;16.15;4.28;;;;;;;;;;5009464;28;20022;-90
2023/06/02 06:11:57;;;;;;;15.38;4.90;;;;;;;;;;5030061;28;20029;-89
2023/06/02 06:14:23;;;;;;;14.25;4.93;;;;;;;;;;5011140;28;20036;-92
2023/06/02 06:16:50;;;;;;;16.75;4.07;;;;;;;;;;5012159;28;20025;-90
2023/06/02 06:19:19;;;;;;;12.20;4.32;;;;;;;;;;5010340;28;20040;-91
2023/06/02 06:21:53;;;;;;;15.52;4.35;;;;;;;;;;5019304;28;20116;-92
2023/06/02 06:24:31;;;;;;;15.27;4.63;;;;;;;;;;5008901;28;20026;-91
2023/06/02 06:26:58;;;;;;;14.02;4.90;;;;;;;;;;5005402;28;20100;-93
2023/06/02 06:29:24;;;;;;;13.75;3.75;;;;;;;;;;5025532;28;20030;-91
2023/06/02 06:31:50;;;;;;;12.15;3.90;;;;;;;;;;5027408;28;20021;-93
2023/06/02 06:34:16;;;;;;;14.27;4.50;;;;;;;;;;5011033;28;20017;-89
2023/06/02 06:36:52;;;;;;;12.10;4.20;;;;;;;;;;5026978;28;20025;-91
2023/06/02 06:39:28;;;;;;;;;;;;;;;;;;;;;
2023/06/02 06:41:59;;;;;;;20.77;4.60;;;;;;;;;;5018022;28;20029;-90
2023/06/02 06:44:24;;;;;;;16.90;3.58;;;;;;;;;;5024464;28;20060;-90
2023/06/02 06:46:50;;;;;;;11.18;3.95;;;;;;;;;;5024052;28;20101;-90
2023/06/02 06:49:15;;;;;;;13.70;4.22;;;;;;;;;;4996799;28;20045;-92
2023/06/02 06:51:41;;;;;;;14.30;4.35;;;;;;;;;;5020496;28;20033;-90
2023/06/02 06:54:06;;;;;;;19.10;5.03;;;;;;;;;;5008359;28;20038;-90
2023/06/02 06:56:37;;;;;;;9.10;3.90;;;;;;;;;;5007522;28;20025;-89
2023/06/02 06:59:10;;;;;;;20.00;4.57;;;;;;;;;;5010877;28;20221;-91
2023/06/02 07:01:38;;;;;;;22.38;4.93;;;;;;;;;;5024561;28;20071;-90
2023/06/02 07:04:12;;;;;;;14.75;4.13;;;;;;;;;;5023354;28;20059;-91
2023/06/02 07:06:38;;;;;;;15.88;4.22;;;;;;;;;;5024587;28;20026;-91
2023/06/02 07:09:15;;;;;;;13.57;4.72;;;;;;;;;;5023848;28;20763;-91
2023/06/02 07:11:51;;;;;;;16.40;4.45;;;;;;;;;;5007151;28;20038;-91
2023/06/02 07:14:17;;;;;;;23.42;5.85;;;;;;;;;;5004874;28;20538;-90
2023/06/02 07:16:54;;;;;;;11.25;5.53;;;;;;;;;;5000339;28;20021;-89
2023/06/02 07:19:45;;;;;;;18.13;4.07;;;;;;;;;;5000661;28;20033;-92
2023/06/02 07:22:10;;;;;;;12.65;4.95;;;;;;;;;;5015192;28;20029;-89
2023/06/02 07:24:44;;;;;;;19.85;5.43;;;;;;;;;;5021418;28;20868;-92
2023/06/02 07:27:11;;;;;;;14.60;4.72;;;;;;;;;;5024735;28;20635;-91
2023/06/02 07:29:46;;;;;;;21.38;6.10;;;;;;;;;;5010110;28;20029;-91
2023/06/02 07:32:21;;;;;;;22.90;5.40;;;;;;;;;;5019680;28;20021;-92
2023/06/02 07:37:45;;;;;;;14.57;5.70;;;;;;;;;;5009169;28;20064;-88
2023/06/02 07:40:13;;;;;;;12.43;5.00;;;;;;;;;;5025143;28;20071;-90
2023/06/02 07:42:41;;;;;;;15.55;5.47;;;;;;;;;;5006291;28;20033;-90
2023/06/02 07:45:10;;;;;;;17.27;5.78;;;;;;;;;;4990399;28;20034;-91
2023/06/02 07:47:42;;;;;;;17.45;6.07;;;;;;;;;;4998893;28;20112;-90
2023/06/02 07:50:10;;;;;;;18.27;5.45;;;;;;;;;;5005750;28;20062;-91
2023/06/02 07:52:35;;;;;;;14.60;5.35;;;;;;;;;;5017872;28;20090;-91
2023/06/02 07:55:21;;;;;;;16.75;6.75;;;;;;;;;;5019162;28;20496;-91
2023/06/02 07:57:49;;;;;;;11.52;4.45;;;;;;;;;;5014509;28;20041;-92
2023/06/02 08:00:18;;;;;;;19.58;4.82;;;;;;;;;;5009166;28;20037;-91
2023/06/02 08:02:52;;;;;;;15.68;6.50;;;;;;;;;;5022657;28;20424;-90
2023/06/02 08:05:18;;;;;;;28.67;6.93;;;;;;;;;;5020000;28;20113;-89
2023/06/02 08:07:46;;;;;;;28.90;7.30;;;;;;;;;;5026580;28;20119;-91
2023/06/02 08:10:11;;;;;;;19.42;5.75;;;;;;;;;;5022253;28;20048;-90
2023/06/02 08:12:37;;;;;;;13.65;4.65;;;;;;;;;;5019843;28;20112;-88
2023/06/02 08:15:03;;;;;;;15.52;5.13;;;;;;;;;;5021873;28;20021;-90
2023/06/02 08:17:31;;;;;;;17.02;5.40;;;;;;;;;;5005572;28;20029;-90
2023/06/02 08:20:00;;;;;;;24.58;6.28;;;;;;;;;;5006985;28;20029;-91
2023/06/02 08:22:28;;;;;;;21.08;6.50;;;;;;;;;;5025884;28;20096;-92
2023/06/02 08:24:53;;;;;;;22.38;6.07;;;;;;;;;;5005364;28;20021;-88
2023/06/02 08:27:44;;;;;;;22.30;6.50;;;;;;;;;;5028167;28;20079;-91
2023/06/02 08:30:41;;;;;;;14.77;5.95;;;;;;;;;;5011691;28;20025;-89
2023/06/02 08:33:31;;;;;;;15.40;5.60;;;;;;;;;;4926659;28;21110;-92
2023/06/02 08:35:56;;;;;;;19.48;5.20;;;;;;;;;;4934348;29;20808;-88
2023/06/02 08:38:30;;;;;;;12.60;5.38;;;;;;;;;;5027724;28;20048;-91
2023/06/02 08:41:10;;;;;;;19.00;4.80;;;;;;;;;;5012133;28;20034;-92
2023/06/02 08:43:58;;;;;;;17.80;4.85;;;;;;;;;;5011457;28;20481;-93
2023/06/02 08:46:34;;;;;;;21.88;5.20;;;;;;;;;;5024998;28;20033;-92
2023/06/02 08:49:21;;;;;;;16.00;5.97;;;;;;;;;;5005700;28;20113;-90
2023/06/02 08:51:57;;;;;;;15.85;5.43;;;;;;;;;;4998396;28;20041;-92
2023/06/02 08:54:35;;;;;;;19.20;5.38;;;;;;;;;;5002678;28;20036;-90
2023/06/02 08:57:09;;;;;;;11.43;5.20;;;;;;;;;;5017194;28;20029;-92
2023/06/02 08:59:40;;;;;;;10.68;4.72;;;;;;;;;;5002009;28;20064;-90
2023/06/02 09:02:06;;;;;;;22.25;5.90;;;;;;;;;;5004262;23;20517;-73
2023/06/02 09:04:31;;;;;;;20.05;5.38;;;;;;;;;;4989373;28;20026;-72
2023/06/02 09:07:11;;;;;;;23.52;5.93;;;;;;;;;;4983686;28;20023;-73
2023/06/02 09:09:41;;;;;;;14.75;4.63;;;;;;;;;;4985447;28;20290;-74
2023/06/02 09:12:08;;;;;;;15.55;5.43;;;;;;;;;;4982673;28;20038;-76
2023/06/02 09:14:33;;;;;;;14.07;4.88;;;;;;;;;;4985046;28;20045;-72
2023/06/02 09:16:58;;;;;;;13.60;5.32;;;;;;;;;;4982587;28;20057;-72
2023/06/02 09:19:23;;;;;;;18.47;5.80;;;;;;;;;;4989242;28;20061;-73
2023/06/02 09:21:49;;;;;;;16.53;5.40;;;;;;;;;;4984744;28;20043;-73
2023/06/02 09:24:28;;;;;;;16.83;6.00;;;;;;;;;;4988243;28;20023;-73
2023/06/02 09:26:54;;;;;;;19.03;6.23;;;;;;;;;;4985068;28;20026;-72
2023/06/02 09:29:19;;;;;;;16.58;5.30;;;;;;;;;;4984149;28;20080;-75
2023/06/02 09:31:45;;;;;;;20.43;5.20;;;;;;;;;;4984672;28;20018;-73
2023/06/02 09:34:11;;;;;;;15.40;5.60;;;;;;;;;;4980623;28;20683;-72
2023/06/02 09:36:38;;;;;;;12.18;5.18;;;;;;;;;;4983783;28;20101;-72
2023/06/02 09:39:03;;;;;;;13.40;5.70;;;;;;;;;;4984126;28;20425;-72
2023/06/02 09:41:30;;;;;;;20.20;7.15;;;;;;;;;;4979747;28;20153;-72
2023/06/02 09:43:56;;;;;;;17.15;6.28;;;;;;;;;;4981560;28;20948;-73
2023/06/02 09:46:21;;;;;;;21.65;6.03;;;;;;;;;;4984570;28;20030;-73
2023/06/02 09:48:53;;;;;;;15.40;6.10;;;;;;;;;;4980515;28;20077;-72
2023/06/02 09:51:21;;;;;;;23.77;5.97;;;;;;;;;;4980645;28;20033;-72
2023/06/02 09:53:46;;;;;;;17.70;5.93;;;;;;;;;;4981156;28;20337;-72
2023/06/02 09:56:12;;;;;;;19.33;6.30;;;;;;;;;;4985014;28;20018;-73
2023/06/02 09:58:37;;;;;;;15.00;5.72;;;;;;;;;;4983614;28;20647;-72
2023/06/02 10:01:03;;;;;;;16.10;5.37;;;;;;;;;;4983684;28;21240;-74
2023/06/02 10:03:28;;;;;;;21.45;5.40;;;;;;;;;;4984613;28;20422;-73
2023/06/02 10:06:22;;;;;;;14.93;5.53;;;;;;;;;;4982378;28;20023;-73
2023/06/02 10:08:59;;;;;;;28.15;8.57;;;;;;;;;;4971852;28;20073;-73
2023/06/02 10:11:45;;;;;;;17.42;6.97;;;;;;;;;;4980604;28;20019;-73
2023/06/02 10:14:33;;;;;;;18.27;6.32;;;;;;;;;;4978765;28;20484;-73
2023/06/02 10:16:58;;;;;;;21.73;6.25;;;;;;;;;;4985380;28;20070;-73
2023/06/02 10:19:33;;;;;;;16.95;5.82;;;;;;;;;;4982374;28;20030;-73
2023/06/02 10:22:05;;;;;;;18.02;6.55;;;;;;;;;;4983576;28;20038;-73
2023/06/02 10:24:43;;;;;;;14.05;6.95;;;;;;;;;;4984186;28;20454;-73
2023/06/02 10:27:08;;;;;;;18.10;7.13;;;;;;;;;;4982120;28;20479;-73
2023/06/02 10:29:35;;;;;;;13.60;6.57;;;;;;;;;;4984593;28;20041;-72
2023/06/02 10:32:15;;;;;;;17.48;7.28;;;;;;;;;;4978487;28;20033;-73
2023/06/02 10:34:41;;;;;;;18.30;6.85;;;;;;;;;;4978508;28;20066;-72
2023/06/02 10:37:06;;;;;;;21.27;6.43;;;;;;;;;;4977696;28;20061;-74
2023/06/02 10:39:40;;;;;;;18.57;5.73;;;;;;;;;;4974498;28;20018;-73
2023/06/02 10:42:06;;;;;;;15.38;6.32;;;;;;;;;;4958844;28;20261;-72
2023/06/02 10:44:31;;;;;;;22.60;7.05;;;;;;;;;;4975799;28;20033;-76
2023/06/02 10:47:15;;;;;;;14.30;6.07;;;;;;;;;;4980925;28;20069;-75
2023/06/02 10:50:00;;;;;;;16.38;6.28;;;;;;;;;;4984368;28;20524;-73
2023/06/02 10:52:26;;;;;;;19.98;7.50;;;;;;;;;;4981522;28;20081;-73
2023/06/02 10:55:11;;;;;;;21.42;7.82;;;;;;;;;;4965983;28;20027;-73
2023/06/02 10:57:52;;;;;;;18.20;7.50;;;;;;;;;;4975227;28;20397;-74
2023/06/02 11:00:23;;;;;;;17.13;6.60;;;;;;;;;;4974336;28;20033;-73
2023/06/02 11:02:48;;;;;;;17.17;6.40;;;;;;;;;;4979800;28;20596;-74
2023/06/02 11:05:26;;;;;;;12.60;6.90;;;;;;;;;;4977832;28;20151;-75
2023/06/02 11:08:21;;;;;;;17.13;6.50;;;;;;;;;;4980392;28;20022;-73
2023/06/02 11:10:56;;;;;;;19.65;8.63;;;;;;;;;;4982644;28;20022;-71
2023/06/02 11:13:25;;;;;;;18.00;6.60;;;;;;;;;;4989007;28;20018;-72
2023/06/02 11:15:53;;;;;;;15.65;7.65;;;;;;;;;;4981358;28;20022;-72
2023/06/02 11:18:21;;;;;;;19.27;6.85;;;;;;;;;;4983382;28;20019;-72
2023/06/02 11:20:49;;;;;;;19.48;6.60;;;;;;;;;;4984095;28;20022;-72
2023/06/02 11:23:14;;;;;;;19.20;6.65;;;;;;;;;;4983355;28;20030;-71
2023/06/02 11:25:40;;;;;;;13.93;6.40;;;;;;;;;;4979553;28;20072;-72
2023/06/02 11:28:05;;;;;;;17.70;8.52;;;;;;;;;;4973432;28;20453;-72
2023/06/02 11:30:30;;;;;;;20.60;7.10;;;;;;;;;;4975722;28;20019;-72
2023/06/02 11:32:56;;;;;;;15.55;6.13;;;;;;;;;;4979391;28;20560;-74
2023/06/02 11:35:27;;;;;;;13.30;5.72;;;;;;;;;;4979865;28;20105;-71
2023/06/02 11:38:01;;;;;;;17.15;5.90;;;;;;;;;;4974318;28;20432;-72
2023/06/02 11:40:27;;;;;;;21.35;5.75;;;;;;;;;;4981788;28;20015;-73
2023/06/02 11:42:53;;;;;;;15.32;5.35;;;;;;;;;;4973719;28;20061;-72
2023/06/02 11:45:22;;;;;;;23.13;6.80;;;;;;;;;;4980102;28;20112;-70
2023/06/02 11:47:54;;;;;;;13.68;5.18;;;;;;;;;;4981811;28;20072;-69
2023/06/02 11:50:19;;;;;;;12.70;4.65;;;;;;;;;;4982134;28;20026;-69
2023/06/02 11:52:45;;;;;;;16.70;4.70;;;;;;;;;;4979745;28;20438;-70
2023/06/02 11:55:10;;;;;;;9.77;3.85;;;;;;;;;;4979507;28;20269;-72
2023/06/02 11:57:36;;;;;;;14.07;4.70;;;;;;;;;;4976640;28;20385;-73
2023/06/02 12:00:06;;;;;;;14.50;4.67;;;;;;;;;;4983854;28;20053;-72
2023/06/02 12:02:31;;;;;;;12.02;4.03;;;;;;;;;;4980467;28;20476;-72
2023/06/02 12:04:57;;;;;;;17.60;5.28;;;;;;;;;;4967562;28;20121;-72
2023/06/02 12:07:26;;;;;;;12.75;4.13;;;;;;;;;;4986916;28;20026;-72
2023/06/02 12:09:51;;;;;;;11.07;3.90;;;;;;;;;;4990002;28;20077;-72
2023/06/02 12:12:17;;;;;;;12.77;3.77;;;;;;;;;;4987558;28;20078;-72
2023/06/02 12:14:42;;;;;;;13.60;3.97;;;;;;;;;;4984027;28;20261;-72
2023/06/02 12:17:07;;;;;;;12.77;4.77;;;;;;;;;;4991663;28;20535;-72
2023/06/02 12:19:33;;;;;;;10.73;4.33;;;;;;;;;;4986079;28;20105;-72
2023/06/02 12:22:05;;;;;;;18.60;4.75;;;;;;;;;;4987020;28;20489;-73
2023/06/02 12:24:34;;;;;;;20.83;4.65;;;;;;;;;;4983835;28;20031;-72
2023/06/02 12:26:59;;;;;;;18.35;4.15;;;;;;;;;;4982534;28;20092;-72
2023/06/02 12:29:25;;;;;;;15.43;4.53;;;;;;;;;;4963235;28;20485;-73
2023/06/02 12:32:00;;;;;;;12.93;3.95;;;;;;;;;;4984147;28;20069;-72
2023/06/02 12:34:26;;;;;;;9.70;4.15;;;;;;;;;;4991598;28;20053;-72
2023/06/02 12:36:51;;;;;;;11.45;3.95;;;;;;;;;;4981889;28;20018;-73
2023/06/02 12:39:16;;;;;;;10.93;4.18;;;;;;;;;;4983861;28;20033;-72
2023/06/02 12:41:42;;;;;;;12.13;4.25;;;;;;;;;;4986615;28;20041;-72
2023/06/02 12:44:07;;;;;;;16.73;6.90;;;;;;;;;;4982479;28;20037;-74
2023/06/02 12:46:32;;;;;;;12.63;4.80;;;;;;;;;;4984151;28;20022;-72
2023/06/02 12:48:58;;;;;;;9.68;4.32;;;;;;;;;;4983145;28;20472;-72
2023/06/02 12:51:23;;;;;;;14.10;4.15;;;;;;;;;;4985493;28;20420;-72
2023/06/02 12:53:48;;;;;;;12.70;5.25;;;;;;;;;;4982183;28;20077;-73
2023/06/02 12:56:13;;;;;;;15.93;5.03;;;;;;;;;;4986860;28;20386;-72
2023/06/02 12:58:39;;;;;;;19.10;5.27;;;;;;;;;;4983203;28;20031;-74
2023/06/02 13:01:05;;;;;;;12.43;5.38;;;;;;;;;;4991794;28;20293;-75
2023/06/02 13:03:30;;;;;;;17.58;5.75;;;;;;;;;;4990857;28;20085;-73
2023/06/02 13:05:57;;;;;;;14.17;4.90;;;;;;;;;;4990478;28;20053;-72
2023/06/02 13:08:22;;;;;;;15.90;4.95;;;;;;;;;;4989774;28;20037;-72
2023/06/02 13:10:47;;;;;;;16.48;5.95;;;;;;;;;;4990472;28;20439;-73
2023/06/02 13:13:13;;;;;;;19.83;6.03;;;;;;;;;;4983647;28;20018;-76
2023/06/02 13:15:38;;;;;;;13.53;5.27;;;;;;;;;;4985214;28;20093;-72
2023/06/02 13:18:04;;;;;;;16.20;5.75;;;;;;;;;;4987244;28;20670;-72
2023/06/02 13:20:29;;;;;;;11.02;5.60;;;;;;;;;;4978206;28;20026;-74
2023/06/02 13:22:54;;;;;;;16.73;5.07;;;;;;;;;;4982211;28;20030;-72
2023/06/02 13:25:19;;;;;;;21.20;5.03;;;;;;;;;;4984172;28;20050;-74
2023/06/02 13:27:44;;;;;;;12.70;5.38;;;;;;;;;;4987152;28;20780;-72
2023/06/02 13:30:10;;;;;;;15.70;6.43;;;;;;;;;;4980360;28;20031;-74
2023/06/02 13:32:35;;;;;;;18.00;5.70;;;;;;;;;;4983707;28;20169;-72
2023/06/02 13:35:00;;;;;;;10.40;4.40;;;;;;;;;;4990395;28;20038;-72
2023/06/02 13:37:26;;;;;;;24.77;5.20;;;;;;;;;;4983700;28;20266;-72
2023/06/02 13:39:51;;;;;;;14.20;4.93;;;;;;;;;;4974831;28;20295;-72
2023/06/02 13:42:16;;;;;;;13.32;4.78;;;;;;;;;;4986091;28;20073;-76
2023/06/02 13:44:41;;;;;;;12.07;4.40;;;;;;;;;;4989585;28;20104;-76
2023/06/02 13:47:07;;;;;;;8.07;4.13;;;;;;;;;;4985141;28;20107;-78
2023/06/02 13:49:32;;;;;;;9.60;3.95;;;;;;;;;;4983147;28;20277;-72
2023/06/02 13:51:57;;;;;;;16.37;4.60;;;;;;;;;;4979128;28;20451;-72
2023/06/02 13:54:22;;;;;;;15.03;4.27;;;;;;;;;;4978415;28;20268;-72
2023/06/02 13:56:48;;;;;;;18.53;3.73;;;;;;;;;;4990371;28;20018;-72
2023/06/02 13:59:13;;;;;;;8.68;3.17;;;;;;;;;;4981794;28;20745;-75
2023/06/02 14:01:39;;;;;;;11.35;3.28;;;;;;;;;;4976289;28;20035;-71
2023/06/02 14:04:06;;;;;;;12.98;3.22;;;;;;;;;;4980800;28;20026;-71
2023/06/02 14:06:35;;;;;;;9.35;3.30;;;;;;;;;;4979723;28;20461;-74
2023/06/02 14:09:00;;;;;;;13.88;4.75;;;;;;;;;;4992620;28;20062;-72
2023/06/02 14:11:25;;;;;;;13.65;3.60;;;;;;;;;;4987954;28;20578;-72
2023/06/02 14:13:50;;;;;;;17.67;3.53;;;;;;;;;;4984498;28;20023;-71
2023/06/02 14:16:16;;;;;;;14.93;3.47;;;;;;;;;;4982407;28;20317;-73
2023/06/02 14:18:42;;;;;;;14.77;3.23;;;;;;;;;;4981159;28;20018;-72
2023/06/02 14:21:08;;;;;;;13.45;4.32;;;;;;;;;;4991327;28;20278;-73
2023/06/02 14:23:33;;;;;;;9.43;2.67;;;;;;;;;;4985044;28;20637;-72
2023/06/02 14:25:58;;;;;;;15.50;4.37;;;;;;;;;;4976950;28;20269;-73
2023/06/02 14:28:23;;;;;;;11.13;2.57;;;;;;;;;;4981598;28;20029;-72
2023/06/02 14:30:48;;;;;;;11.07;3.07;;;;;;;;;;4978164;28;20030;-72
2023/06/02 14:33:13;;;;;;;14.23;3.85;;;;;;;;;;4982491;28;20273;-72
2023/06/02 14:35:39;;;;;;;10.47;3.40;;;;;;;;;;4984486;28;20355;-72
2023/06/02 14:38:04;;;;;;;10.70;3.33;;;;;;;;;;4991886;28;20089;-72
2023/06/02 14:40:29;;;;;;;16.38;3.15;;;;;;;;;;4989441;28;20295;-71
2023/06/02 14:42:54;;;;;;;17.53;4.10;;;;;;;;;;4985804;28;20425;-72
2023/06/02 14:45:20;;;;;;;13.88;2.80;;;;;;;;;;4989800;28;20289;-72